Terminal Aerodrome Forecast
Issued by NWS

Home | Current Version | Previous Version | Text Only | Print | Product List | Glossary On
Versions: 1 2 3 4 5 6 7 8 9 10 11 12 13 14 15 16 17 18 19 20 21 22 23 24 25 26 27 28 29 30 31 32 33 34 35 36 37 38 39 40 41 42 43 44 45 46 47 48 49 50
000
FTUS43 KDDC 262340
TAFGCK
TAF
KGCK 262340Z 2700/2724 36011KT P6SM OVC010
     FM270300 VRB06KT 4SM BR BKN007
     FM270500 34007KT 2SM BR BKN005
     FM270700 34008KT 1 1/2SM BR BKN005
     FM271100 33008KT 1 1/2SM BR SCT005
     FM271300 VRB06KT 2SM BR SCT035
     FM271500 VRB06KT P6SM FEW090=

USA.gov is the U.S. government's official web portal to all federal, state and local government web resources and services.